North Hampton, NH (03862)

2:14 PM EDT on September 01, 2015 (GMT -0400)
Hampton Airfield 7B3 | | Change Station
CLOSE
Current Station
Personal Weather Station
Location: North Hampton, NH
Elevation: 93 ft
Nearby Weather Stations

Elev 93 ft 42.96 °N, 70.83 °W | Updated 5 minutes ago

Clear
Clear
75.4 °F
Feels Like 78 °F
N
3.0
Wind Variable Wind from SSE
Gusts 11.0 mph

Today
High -- | Low -- °F
--% Chance of Precip.
Yesterday
High -- | Low -- °F
Precip. -- in
6:07 AM 7:18 PM
Waning Gibbous, 87% visible
Pressure 30.04 in
Visibility 10.0 miles
Clouds Few 4000 ft
Few 25000 ft
Heat Index 78 °F
Dew Point 61 °F
Humidity 61%
Rainfall 0.00 in
Snow Depth Not available.
UV 7 out of 12
Pollen 7.90 out of 12
Air Quality Not available.
Flu Activity Not available.
METAR KPSM 011758Z 11009KT 10SM FEW040 FEW250 25/15 A3003 RMK AO2A SLP172 T02500148 10254 20194 58002
Pressure 30.04 in
Visibility 10.0 miles
Clouds Few 4000 ft
Few 25000 ft
Heat Index 78 °F
Dew Point 61 °F
Humidity 61%
Rainfall 0.00 in
Snow Depth Not available.
UV 7 out of 12
Pollen 7.90 out of 12
Air Quality Not available.
Flu Activity Not available.
METAR KPSM 011758Z 11009KT 10SM FEW040 FEW250 25/15 A3003 RMK AO2A SLP172 T02500148 10254 20194 58002

10-Day Weather Forecast

×

Almanac

Astronomy

Sep. 01, 2015 Rise Set
Actual Time
Civil Twilight
Nautical Twilight
Astronomical Twilight
Moon
Length of Visible Light
Length of Day
Tomorrow will be .
, % of the Moon is Illuminated

Today's Extremes

State Highs State Lows

Community

WunderPhotos

Upload Photos

1,851,592 photos uploaded!

WunderBlogs® & News

Nearby

Air Quality

  Air Quality AQ Index Pollutant
Not available.

Snow Depth

Station Depth Elevation

Earthquake Activity

City Distance Mag. Time & Date
Minimum magnitude displayed is 2.5.

Coastal Water Temperatures

Place Temperature

Stations

Nearby Weather Stations

Station Location Temp. Windchill Dew Point Humidity Wind Precip. Elev Updated Type